sensor_id;sensor_type;location;lat;lon;timestamp;temperature;humidity
3816;DHT22;1923;48.154;11.536;2023-03-08T00:00:40;6.00;95.30
3816;DHT22;1923;48.154;11.536;2023-03-08T00:03:12;6.00;95.20
3816;DHT22;1923;48.154;11.536;2023-03-08T00:05:41;6.00;95.40
3816;DHT22;1923;48.154;11.536;2023-03-08T00:08:09;6.00;95.30
3816;DHT22;1923;48.154;11.536;2023-03-08T00:10:37;6.00;95.30
3816;DHT22;1923;48.154;11.536;2023-03-08T00:13:05;6.00;95.40
3816;DHT22;1923;48.154;11.536;2023-03-08T00:15:35;6.00;95.30
3816;DHT22;1923;48.154;11.536;2023-03-08T00:18:04;6.00;95.40
3816;DHT22;1923;48.154;11.536;2023-03-08T00:20:33;6.00;95.40
3816;DHT22;1923;48.154;11.536;2023-03-08T00:23:01;5.90;95.50
3816;DHT22;1923;48.154;11.536;2023-03-08T00:25:29;5.80;95.50
3816;DHT22;1923;48.154;11.536;2023-03-08T00:27:57;5.80;95.70
3816;DHT22;1923;48.154;11.536;2023-03-08T00:30:25;5.60;95.80
3816;DHT22;1923;48.154;11.536;2023-03-08T08:35:39;6.30;99.90
3816;DHT22;1923;48.154;11.536;2023-03-08T08:38:09;8.60;99.90
3816;DHT22;1923;48.154;11.536;2023-03-08T08:40:37;8.60;99.90
3816;DHT22;1923;48.154;11.536;2023-03-08T08:43:05;8.40;99.90
3816;DHT22;1923;48.154;11.536;2023-03-08T08:45:33;8.20;99.90
3816;DHT22;1923;48.154;11.536;2023-03-08T08:48:01;8.10;99.90
3816;DHT22;1923;48.154;11.536;2023-03-08T08:50:29;8.00;99.90
3816;DHT22;1923;48.154;11.536;2023-03-08T08:52:58;7.90;99.90
3816;DHT22;1923;48.154;11.536;2023-03-08T08:55:26;7.90;99.90
3816;DHT22;1923;48.154;11.536;2023-03-08T08:57:54;7.90;99.90
3816;DHT22;1923;48.154;11.536;2023-03-08T09:00:23;7.80;99.90
3816;DHT22;1923;48.154;11.536;2023-03-08T09:02:51;7.80;99.90
3816;DHT22;1923;48.154;11.536;2023-03-08T09:05:19;7.80;99.90
3816;DHT22;1923;48.154;11.536;2023-03-08T09:07:47;8.00;99.90
3816;DHT22;1923;48.154;11.536;2023-03-08T09:10:17;7.90;99.90
3816;DHT22;1923;48.154;11.536;2023-03-08T09:12:45;7.90;99.90
3816;DHT22;1923;48.154;11.536;2023-03-08T09:15:13;8.00;99.90
3816;DHT22;1923;48.154;11.536;2023-03-08T09:17:41;8.00;99.90
3816;DHT22;1923;48.154;11.536;2023-03-08T09:20:11;7.90;99.90
3816;DHT22;1923;48.154;11.536;2023-03-08T09:22:39;7.80;99.90
3816;DHT22;1923;48.154;11.536;2023-03-08T09:25:08;7.80;99.90
3816;DHT22;1923;48.154;11.536;2023-03-08T09:27:39;7.80;99.90
3816;DHT22;1923;48.154;11.536;2023-03-08T09:30:10;7.90;99.90
3816;DHT22;1923;48.154;11.536;2023-03-08T09:32:39;7.80;99.90
3816;DHT22;1923;48.154;11.536;2023-03-08T09:35:08;7.90;99.90
3816;DHT22;1923;48.154;11.536;2023-03-08T09:37:36;8.00;99.90
3816;DHT22;1923;48.154;11.536;2023-03-08T09:40:05;8.10;99.90
3816;DHT22;1923;48.154;11.536;2023-03-08T09:42:35;8.00;99.90
3816;DHT22;1923;48.154;11.536;2023-03-08T09:45:18;8.10;99.90
3816;DHT22;1923;48.154;11.536;2023-03-08T09:47:53;8.20;99.90
3816;DHT22;1923;48.154;11.536;2023-03-08T09:50:36;8.30;99.90
3816;DHT22;1923;48.154;11.536;2023-03-08T09:53:13;8.40;99.90
3816;DHT22;1923;48.154;11.536;2023-03-08T09:55:46;8.60;99.90
3816;DHT22;1923;48.154;11.536;2023-03-08T09:58:21;9.00;99.90
3816;DHT22;1923;48.154;11.536;2023-03-08T10:00:54;9.20;99.90
3816;DHT22;1923;48.154;11.536;2023-03-08T10:03:52;9.20;99.90
3816;DHT22;1923;48.154;11.536;2023-03-08T10:06:28;9.20;99.90
3816;DHT22;1923;48.154;11.536;2023-03-08T10:09:02;9.30;99.90
3816;DHT22;1923;48.154;11.536;2023-03-08T10:11:37;9.30;99.90
3816;DHT22;1923;48.154;11.536;2023-03-08T10:14:19;9.20;99.90
3816;DHT22;1923;48.154;11.536;2023-03-08T10:16:52;9.30;99.90
3816;DHT22;1923;48.154;11.536;2023-03-08T10:19:27;9.00;99.90
3816;DHT22;1923;48.154;11.536;2023-03-08T10:22:02;9.00;99.90
3816;DHT22;1923;48.154;11.536;2023-03-08T10:24:36;9.00;99.90
3816;DHT22;1923;48.154;11.536;2023-03-08T10:27:15;8.90;99.90
3816;DHT22;1923;48.154;11.536;2023-03-08T10:29:48;9.10;99.90
3816;DHT22;1923;48.154;11.536;2023-03-08T10:32:18;9.30;99.90
3816;DHT22;1923;48.154;11.536;2023-03-08T10:34:47;9.40;99.90
3816;DHT22;1923;48.154;11.536;2023-03-08T10:37:15;9.50;99.90
3816;DHT22;1923;48.154;11.536;2023-03-08T10:39:49;9.60;99.90
3816;DHT22;1923;48.154;11.536;2023-03-08T10:42:20;9.80;99.90
3816;DHT22;1923;48.154;11.536;2023-03-08T10:44:54;9.90;99.90
3816;DHT22;1923;48.154;11.536;2023-03-08T10:47:26;9.80;99.90
3816;DHT22;1923;48.154;11.536;2023-03-08T10:50:10;9.60;99.90
3816;DHT22;1923;48.154;11.536;2023-03-08T10:52:38;9.70;99.90
3816;DHT22;1923;48.154;11.536;2023-03-08T10:55:11;9.70;99.90
3816;DHT22;1923;48.154;11.536;2023-03-08T10:57:39;9.80;99.90
3816;DHT22;1923;48.154;11.536;2023-03-08T11:00:31;9.80;99.90
3816;DHT22;1923;48.154;11.536;2023-03-08T11:03:16;10.10;99.90
3816;DHT22;1923;48.154;11.536;2023-03-08T11:05:56;10.10;99.90
3816;DHT22;1923;48.154;11.536;2023-03-08T11:08:27;10.20;99.90
3816;DHT22;1923;48.154;11.536;2023-03-08T11:11:03;10.30;99.90
3816;DHT22;1923;48.154;11.536;2023-03-08T11:13:33;10.20;99.90
3816;DHT22;1923;48.154;11.536;2023-03-08T11:16:12;10.00;99.90
3816;DHT22;1923;48.154;11.536;2023-03-08T11:19:00;9.90;99.90
3816;DHT22;1923;48.154;11.536;2023-03-08T11:21:39;9.90;99.90
3816;DHT22;1923;48.154;11.536;2023-03-08T11:24:17;9.80;99.90
3816;DHT22;1923;48.154;11.536;2023-03-08T11:26:57;9.70;99.90
3816;DHT22;1923;48.154;11.536;2023-03-08T11:29:37;9.70;99.90
3816;DHT22;1923;48.154;11.536;2023-03-08T11:32:18;9.70;99.90
3816;DHT22;1923;48.154;11.536;2023-03-08T11:35:12;9.70;99.90
3816;DHT22;1923;48.154;11.536;2023-03-08T11:37:47;9.80;99.90
3816;DHT22;1923;48.154;11.536;2023-03-08T11:40:21;9.80;99.90
3816;DHT22;1923;48.154;11.536;2023-03-08T11:43:03;9.80;99.90
3816;DHT22;1923;48.154;11.536;2023-03-08T11:45:43;9.70;99.90
3816;DHT22;1923;48.154;11.536;2023-03-08T11:48:25;9.50;99.90
3816;DHT22;1923;48.154;11.536;2023-03-08T11:51:04;9.50;99.90
3816;DHT22;1923;48.154;11.536;2023-03-08T11:53:43;9.50;99.90
3816;DHT22;1923;48.154;11.536;2023-03-08T11:56:42;9.50;99.90
3816;DHT22;1923;48.154;11.536;2023-03-08T11:59:28;9.60;99.90
3816;DHT22;1923;48.154;11.536;2023-03-08T12:02:00;9.60;99.90
3816;DHT22;1923;48.154;11.536;2023-03-08T12:04:33;9.80;99.90
3816;DHT22;1923;48.154;11.536;2023-03-08T12:07:06;10.00;99.90
3816;DHT22;1923;48.154;11.536;2023-03-08T12:09:50;10.30;99.90
3816;DHT22;1923;48.154;11.536;2023-03-08T12:12:23;10.30;99.90
3816;DHT22;1923;48.154;11.536;2023-03-08T12:14:55;10.40;99.90
3816;DHT22;1923;48.154;11.536;2023-03-08T12:17:27;10.30;99.90
3816;DHT22;1923;48.154;11.536;2023-03-08T12:19:57;10.40;99.90
3816;DHT22;1923;48.154;11.536;2023-03-08T12:22:34;10.50;99.90
3816;DHT22;1923;48.154;11.536;2023-03-08T12:25:16;10.50;99.90
3816;DHT22;1923;48.154;11.536;2023-03-08T12:27:48;10.60;99.90
3816;DHT22;1923;48.154;11.536;2023-03-08T12:30:22;10.60;99.90
3816;DHT22;1923;48.154;11.536;2023-03-08T12:32:54;10.70;99.90
3816;DHT22;1923;48.154;11.536;2023-03-08T12:35:27;10.70;99.90
3816;DHT22;1923;48.154;11.536;2023-03-08T12:37:58;10.80;99.90
3816;DHT22;1923;48.154;11.536;2023-03-08T12:40:33;11.00;99.90
3816;DHT22;1923;48.154;11.536;2023-03-08T12:43:04;11.30;99.90
3816;DHT22;1923;48.154;11.536;2023-03-08T12:45:33;11.60;99.90
3816;DHT22;1923;48.154;11.536;2023-03-08T12:48:14;11.70;99.90
3816;DHT22;1923;48.154;11.536;2023-03-08T12:50:45;11.90;99.90
3816;DHT22;1923;48.154;11.536;2023-03-08T12:53:34;12.00;99.90
3816;DHT22;1923;48.154;11.536;2023-03-08T12:56:05;12.10;99.90
3816;DHT22;1923;48.154;11.536;2023-03-08T12:58:48;12.20;99.90
3816;DHT22;1923;48.154;11.536;2023-03-08T13:01:37;12.30;99.90
3816;DHT22;1923;48.154;11.536;2023-03-08T13:04:25;12.50;99.90
3816;DHT22;1923;48.154;11.536;2023-03-08T13:07:18;12.60;99.90
3816;DHT22;1923;48.154;11.536;2023-03-08T13:09:54;12.70;99.90
3816;DHT22;1923;48.154;11.536;2023-03-08T13:12:29;12.60;99.90
3816;DHT22;1923;48.154;11.536;2023-03-08T13:15:07;12.60;99.90
3816;DHT22;1923;48.154;11.536;2023-03-08T13:17:38;12.70;99.90
3816;DHT22;1923;48.154;11.536;2023-03-08T13:20:15;12.80;99.90
3816;DHT22;1923;48.154;11.536;2023-03-08T13:22:52;12.80;99.90
3816;DHT22;1923;48.154;11.536;2023-03-08T13:25:35;12.90;99.90
3816;DHT22;1923;48.154;11.536;2023-03-08T13:28:09;13.10;99.90
3816;DHT22;1923;48.154;11.536;2023-03-08T13:30:42;13.40;99.90
3816;DHT22;1923;48.154;11.536;2023-03-08T13:33:14;13.60;99.90
3816;DHT22;1923;48.154;11.536;2023-03-08T13:35:53;13.80;99.90
3816;DHT22;1923;48.154;11.536;2023-03-08T13:38:23;14.10;99.90
3816;DHT22;1923;48.154;11.536;2023-03-08T13:40:54;14.30;99.90
3816;DHT22;1923;48.154;11.536;2023-03-08T13:43:23;14.40;99.90
3816;DHT22;1923;48.154;11.536;2023-03-08T13:45:54;14.50;99.90
3816;DHT22;1923;48.154;11.536;2023-03-08T13:48:25;14.70;99.90
3816;DHT22;1923;48.154;11.536;2023-03-08T13:50:55;14.70;99.90
3816;DHT22;1923;48.154;11.536;2023-03-08T13:53:26;14.90;99.90
3816;DHT22;1923;48.154;11.536;2023-03-08T13:55:58;14.90;99.90
3816;DHT22;1923;48.154;11.536;2023-03-08T13:58:31;14.90;99.90
3816;DHT22;1923;48.154;11.536;2023-03-08T14:01:01;15.00;99.90
3816;DHT22;1923;48.154;11.536;2023-03-08T14:03:31;14.90;99.90
3816;DHT22;1923;48.154;11.536;2023-03-08T14:05:59;14.90;99.90
3816;DHT22;1923;48.154;11.536;2023-03-08T14:08:27;14.60;99.90
3816;DHT22;1923;48.154;11.536;2023-03-08T14:10:59;14.60;99.90
3816;DHT22;1923;48.154;11.536;2023-03-08T14:13:29;14.50;99.90
3816;DHT22;1923;48.154;11.536;2023-03-08T14:16:00;14.40;99.90
3816;DHT22;1923;48.154;11.536;2023-03-08T14:18:31;14.40;99.90
3816;DHT22;1923;48.154;11.536;2023-03-08T14:21:02;14.40;99.90
3816;DHT22;1923;48.154;11.536;2023-03-08T14:23:34;14.20;99.90
3816;DHT22;1923;48.154;11.536;2023-03-08T14:26:05;14.10;99.90
3816;DHT22;1923;48.154;11.536;2023-03-08T14:28:36;14.00;99.90
3816;DHT22;1923;48.154;11.536;2023-03-08T14:31:22;13.80;99.90
3816;DHT22;1923;48.154;11.536;2023-03-08T14:33:56;13.70;99.90
3816;DHT22;1923;48.154;11.536;2023-03-08T14:36:25;13.50;99.90
3816;DHT22;1923;48.154;11.536;2023-03-08T14:38:53;13.40;99.90
3816;DHT22;1923;48.154;11.536;2023-03-08T14:41:30;13.40;99.90
3816;DHT22;1923;48.154;11.536;2023-03-08T14:44:00;13.40;99.90
3816;DHT22;1923;48.154;11.536;2023-03-08T14:46:29;13.40;99.90
3816;DHT22;1923;48.154;11.536;2023-03-08T14:48:59;13.50;99.90
3816;DHT22;1923;48.154;11.536;2023-03-08T14:51:34;13.50;99.90
3816;DHT22;1923;48.154;11.536;2023-03-08T14:54:04;13.50;99.90
3816;DHT22;1923;48.154;11.536;2023-03-08T14:56:35;13.60;99.90
3816;DHT22;1923;48.154;11.536;2023-03-08T14:59:03;13.50;99.90
3816;DHT22;1923;48.154;11.536;2023-03-08T15:01:36;13.60;99.90
3816;DHT22;1923;48.154;11.536;2023-03-08T15:04:14;13.70;99.90
3816;DHT22;1923;48.154;11.536;2023-03-08T15:06:43;13.70;99.90
3816;DHT22;1923;48.154;11.536;2023-03-08T15:09:13;13.80;99.90
3816;DHT22;1923;48.154;11.536;2023-03-08T15:11:43;14.00;99.90
3816;DHT22;1923;48.154;11.536;2023-03-08T15:14:11;14.10;99.90
3816;DHT22;1923;48.154;11.536;2023-03-08T15:16:40;14.10;99.90
3816;DHT22;1923;48.154;11.536;2023-03-08T15:19:08;14.10;99.90
3816;DHT22;1923;48.154;11.536;2023-03-08T15:21:37;14.20;99.90
3816;DHT22;1923;48.154;11.536;2023-03-08T15:24:06;14.10;99.90
3816;DHT22;1923;48.154;11.536;2023-03-08T15:26:34;14.10;99.90
3816;DHT22;1923;48.154;11.536;2023-03-08T15:29:03;14.10;99.90
3816;DHT22;1923;48.154;11.536;2023-03-08T15:31:31;14.10;99.90
3816;DHT22;1923;48.154;11.536;2023-03-08T15:34:00;14.10;99.90
3816;DHT22;1923;48.154;11.536;2023-03-08T15:36:28;14.10;99.90
3816;DHT22;1923;48.154;11.536;2023-03-08T15:39:00;14.10;99.90
3816;DHT22;1923;48.154;11.536;2023-03-08T15:41:30;13.90;99.90
3816;DHT22;1923;48.154;11.536;2023-03-08T15:43:58;13.80;99.90
3816;DHT22;1923;48.154;11.536;2023-03-08T15:46:27;13.70;99.90
3816;DHT22;1923;48.154;11.536;2023-03-08T15:48:55;13.70;99.90
3816;DHT22;1923;48.154;11.536;2023-03-08T15:51:27;13.60;99.90
3816;DHT22;1923;48.154;11.536;2023-03-08T15:53:56;13.60;99.90
3816;DHT22;1923;48.154;11.536;2023-03-08T15:56:24;13.60;99.90
3816;DHT22;1923;48.154;11.536;2023-03-08T15:58:53;13.50;99.90
3816;DHT22;1923;48.154;11.536;2023-03-08T16:01:22;13.50;99.90
3816;DHT22;1923;48.154;11.536;2023-03-08T16:03:53;13.50;99.90
3816;DHT22;1923;48.154;11.536;2023-03-08T16:06:22;13.50;99.90
3816;DHT22;1923;48.154;11.536;2023-03-08T16:08:50;13.50;99.90
3816;DHT22;1923;48.154;11.536;2023-03-08T16:11:19;13.40;99.90
3816;DHT22;1923;48.154;11.536;2023-03-08T16:13:50;13.30;99.90
3816;DHT22;1923;48.154;11.536;2023-03-08T16:16:19;13.30;99.90
3816;DHT22;1923;48.154;11.536;2023-03-08T16:18:47;13.40;99.90
3816;DHT22;1923;48.154;11.536;2023-03-08T16:21:17;13.40;99.90
3816;DHT22;1923;48.154;11.536;2023-03-08T16:23:45;13.30;99.90
3816;DHT22;1923;48.154;11.536;2023-03-08T16:26:14;13.20;99.90
3816;DHT22;1923;48.154;11.536;2023-03-08T16:28:45;13.10;99.90
3816;DHT22;1923;48.154;11.536;2023-03-08T16:31:14;13.10;99.90
3816;DHT22;1923;48.154;11.536;2023-03-08T16:33:43;13.00;99.90
3816;DHT22;1923;48.154;11.536;2023-03-08T16:36:12;12.90;99.90
3816;DHT22;1923;48.154;11.536;2023-03-08T16:38:41;12.90;99.90
3816;DHT22;1923;48.154;11.536;2023-03-08T16:41:09;12.90;99.90
3816;DHT22;1923;48.154;11.536;2023-03-08T16:43:40;12.90;99.90
3816;DHT22;1923;48.154;11.536;2023-03-08T16:46:17;12.80;99.90
3816;DHT22;1923;48.154;11.536;2023-03-08T16:48:46;12.80;99.90
3816;DHT22;1923;48.154;11.536;2023-03-08T16:51:17;12.80;99.90
3816;DHT22;1923;48.154;11.536;2023-03-08T16:53:47;12.70;99.90
3816;DHT22;1923;48.154;11.536;2023-03-08T16:56:16;12.60;99.90
3816;DHT22;1923;48.154;11.536;2023-03-08T16:58:44;12.60;99.90
3816;DHT22;1923;48.154;11.536;2023-03-08T17:01:13;12.50;99.90
3816;DHT22;1923;48.154;11.536;2023-03-08T17:03:42;12.50;99.90
3816;DHT22;1923;48.154;11.536;2023-03-08T17:06:13;12.40;99.90
3816;DHT22;1923;48.154;11.536;2023-03-08T17:08:41;12.40;99.90
3816;DHT22;1923;48.154;11.536;2023-03-08T17:11:15;12.40;99.90
3816;DHT22;1923;48.154;11.536;2023-03-08T17:13:46;12.30;99.90
3816;DHT22;1923;48.154;11.536;2023-03-08T17:16:17;12.20;99.90
3816;DHT22;1923;48.154;11.536;2023-03-08T17:18:45;12.20;99.90
3816;DHT22;1923;48.154;11.536;2023-03-08T17:21:14;12.30;99.90
3816;DHT22;1923;48.154;11.536;2023-03-08T17:23:42;12.20;99.90
3816;DHT22;1923;48.154;11.536;2023-03-08T17:26:11;12.20;99.90
3816;DHT22;1923;48.154;11.536;2023-03-08T17:28:41;12.20;99.90
3816;DHT22;1923;48.154;11.536;2023-03-08T17:31:11;12.20;99.90
3816;DHT22;1923;48.154;11.536;2023-03-08T17:33:40;12.10;99.90
3816;DHT22;1923;48.154;11.536;2023-03-08T17:36:09;12.20;99.90
3816;DHT22;1923;48.154;11.536;2023-03-08T17:38:38;12.20;99.90
3816;DHT22;1923;48.154;11.536;2023-03-08T17:41:09;12.20;99.90
3816;DHT22;1923;48.154;11.536;2023-03-08T17:43:37;12.20;99.90
3816;DHT22;1923;48.154;11.536;2023-03-08T17:46:11;12.30;99.90
3816;DHT22;1923;48.154;11.536;2023-03-08T17:48:40;12.30;99.90
3816;DHT22;1923;48.154;11.536;2023-03-08T17:51:10;12.20;99.90
3816;DHT22;1923;48.154;11.536;2023-03-08T17:53:38;12.20;99.90
3816;DHT22;1923;48.154;11.536;2023-03-08T17:56:08;12.30;99.90
3816;DHT22;1923;48.154;11.536;2023-03-08T17:58:37;12.30;99.90
3816;DHT22;1923;48.154;11.536;2023-03-08T18:01:11;12.30;99.90
3816;DHT22;1923;48.154;11.536;2023-03-08T18:03:39;12.30;99.90
3816;DHT22;1923;48.154;11.536;2023-03-08T18:06:16;12.30;99.90
3816;DHT22;1923;48.154;11.536;2023-03-08T18:08:45;12.40;99.90
3816;DHT22;1923;48.154;11.536;2023-03-08T18:11:13;12.50;99.90
3816;DHT22;1923;48.154;11.536;2023-03-08T18:13:41;12.40;99.90
3816;DHT22;1923;48.154;11.536;2023-03-08T18:16:10;12.40;99.90
3816;DHT22;1923;48.154;11.536;2023-03-08T18:18:38;12.50;99.90
3816;DHT22;1923;48.154;11.536;2023-03-08T18:21:06;12.50;99.90
3816;DHT22;1923;48.154;11.536;2023-03-08T18:23:39;12.40;99.90
3816;DHT22;1923;48.154;11.536;2023-03-08T18:26:09;12.40;99.90
3816;DHT22;1923;48.154;11.536;2023-03-08T18:28:37;12.30;99.90
3816;DHT22;1923;48.154;11.536;2023-03-08T18:31:06;12.30;99.90
3816;DHT22;1923;48.154;11.536;2023-03-08T18:33:36;12.40;99.90
3816;DHT22;1923;48.154;11.536;2023-03-08T18:36:04;12.30;99.90
3816;DHT22;1923;48.154;11.536;2023-03-08T18:38:33;12.30;99.90
3816;DHT22;1923;48.154;11.536;2023-03-08T18:41:10;12.40;99.90
3816;DHT22;1923;48.154;11.536;2023-03-08T18:43:39;12.30;99.90
3816;DHT22;1923;48.154;11.536;2023-03-08T18:46:07;12.30;99.90
3816;DHT22;1923;48.154;11.536;2023-03-08T18:48:39;12.30;99.90
3816;DHT22;1923;48.154;11.536;2023-03-08T18:51:08;12.30;99.90
3816;DHT22;1923;48.154;11.536;2023-03-08T18:53:36;12.40;99.90
3816;DHT22;1923;48.154;11.536;2023-03-08T18:56:05;12.40;99.90
3816;DHT22;1923;48.154;11.536;2023-03-08T18:58:33;12.40;99.90
3816;DHT22;1923;48.154;11.536;2023-03-08T19:01:01;12.40;99.90
3816;DHT22;1923;48.154;11.536;2023-03-08T19:03:30;12.50;99.90
3816;DHT22;1923;48.154;11.536;2023-03-08T19:06:01;12.30;99.90
3816;DHT22;1923;48.154;11.536;2023-03-08T19:08:30;12.20;99.90
3816;DHT22;1923;48.154;11.536;2023-03-08T19:10:58;12.20;99.90
3816;DHT22;1923;48.154;11.536;2023-03-08T19:13:26;12.10;99.90
3816;DHT22;1923;48.154;11.536;2023-03-08T19:15:54;12.20;99.90
3816;DHT22;1923;48.154;11.536;2023-03-08T19:18:22;12.10;99.90
3816;DHT22;1923;48.154;11.536;2023-03-08T19:20:50;12.10;99.90
3816;DHT22;1923;48.154;11.536;2023-03-08T19:23:20;11.90;99.90
3816;DHT22;1923;48.154;11.536;2023-03-08T19:25:47;11.80;99.90
3816;DHT22;1923;48.154;11.536;2023-03-08T19:28:47;11.70;99.90
3816;DHT22;1923;48.154;11.536;2023-03-08T19:31:16;11.60;99.90
3816;DHT22;1923;48.154;11.536;2023-03-08T19:33:44;11.40;99.90
3816;DHT22;1923;48.154;11.536;2023-03-08T19:36:15;11.20;99.90
3816;DHT22;1923;48.154;11.536;2023-03-08T19:38:45;11.10;99.90
3816;DHT22;1923;48.154;11.536;2023-03-08T19:41:13;10.90;99.90
3816;DHT22;1923;48.154;11.536;2023-03-08T19:43:41;10.80;99.90
3816;DHT22;1923;48.154;11.536;2023-03-08T19:46:09;10.80;99.90
3816;DHT22;1923;48.154;11.536;2023-03-08T19:48:37;10.60;99.90
3816;DHT22;1923;48.154;11.536;2023-03-08T19:51:05;10.50;99.90
3816;DHT22;1923;48.154;11.536;2023-03-08T19:53:33;10.40;99.90
3816;DHT22;1923;48.154;11.536;2023-03-08T19:56:03;10.40;99.90
3816;DHT22;1923;48.154;11.536;2023-03-08T19:58:31;10.30;99.90
3816;DHT22;1923;48.154;11.536;2023-03-08T20:01:01;10.30;99.90
3816;DHT22;1923;48.154;11.536;2023-03-08T20:03:29;10.00;99.90
3816;DHT22;1923;48.154;11.536;2023-03-08T20:05:57;10.00;99.90
3816;DHT22;1923;48.154;11.536;2023-03-08T20:08:25;10.10;99.90
3816;DHT22;1923;48.154;11.536;2023-03-08T20:10:53;10.10;99.90
3816;DHT22;1923;48.154;11.536;2023-03-08T20:13:23;9.90;99.90
3816;DHT22;1923;48.154;11.536;2023-03-08T20:15:51;9.80;99.90
3816;DHT22;1923;48.154;11.536;2023-03-08T20:18:19;9.80;99.90
3816;DHT22;1923;48.154;11.536;2023-03-08T20:20:47;9.80;99.90
3816;DHT22;1923;48.154;11.536;2023-03-08T20:23:16;9.70;99.90
3816;DHT22;1923;48.154;11.536;2023-03-08T20:25:44;9.70;99.90
3816;DHT22;1923;48.154;11.536;2023-03-08T20:28:12;9.70;99.90
3816;DHT22;1923;48.154;11.536;2023-03-08T20:30:42;9.70;99.90
3816;DHT22;1923;48.154;11.536;2023-03-08T20:33:10;9.80;99.90
3816;DHT22;1923;48.154;11.536;2023-03-08T20:35:38;9.70;99.90
3816;DHT22;1923;48.154;11.536;2023-03-08T20:38:07;9.70;99.90
3816;DHT22;1923;48.154;11.536;2023-03-08T20:40:35;9.60;99.90
3816;DHT22;1923;48.154;11.536;2023-03-08T20:43:05;9.60;99.90
3816;DHT22;1923;48.154;11.536;2023-03-08T20:45:37;9.50;99.90
3816;DHT22;1923;48.154;11.536;2023-03-08T20:48:07;9.40;99.90
3816;DHT22;1923;48.154;11.536;2023-03-08T20:50:36;9.40;99.90
3816;DHT22;1923;48.154;11.536;2023-03-08T20:53:03;9.40;99.90
3816;DHT22;1923;48.154;11.536;2023-03-08T20:55:31;9.30;99.90
3816;DHT22;1923;48.154;11.536;2023-03-08T20:58:00;9.40;99.90
3816;DHT22;1923;48.154;11.536;2023-03-08T21:00:28;9.40;99.90
3816;DHT22;1923;48.154;11.536;2023-03-08T21:02:56;9.40;99.90
3816;DHT22;1923;48.154;11.536;2023-03-08T21:05:26;9.40;99.90
3816;DHT22;1923;48.154;11.536;2023-03-08T21:07:54;9.40;99.90
3816;DHT22;1923;48.154;11.536;2023-03-08T21:10:22;9.40;99.90
3816;DHT22;1923;48.154;11.536;2023-03-08T21:12:50;9.50;99.90
3816;DHT22;1923;48.154;11.536;2023-03-08T21:15:18;9.40;99.90
3816;DHT22;1923;48.154;11.536;2023-03-08T21:17:46;9.50;99.90
3816;DHT22;1923;48.154;11.536;2023-03-08T21:20:14;9.60;99.90
3816;DHT22;1923;48.154;11.536;2023-03-08T21:22:44;9.50;99.90
3816;DHT22;1923;48.154;11.536;2023-03-08T21:25:11;9.50;99.90
3816;DHT22;1923;48.154;11.536;2023-03-08T21:27:39;9.60;99.90
3816;DHT22;1923;48.154;11.536;2023-03-08T21:30:10;9.60;99.90
3816;DHT22;1923;48.154;11.536;2023-03-08T21:32:38;9.60;99.90
3816;DHT22;1923;48.154;11.536;2023-03-08T21:35:07;9.60;99.90
3816;DHT22;1923;48.154;11.536;2023-03-08T21:37:35;9.60;99.90
3816;DHT22;1923;48.154;11.536;2023-03-08T21:40:05;9.60;99.90
3816;DHT22;1923;48.154;11.536;2023-03-08T21:42:37;9.60;99.90
3816;DHT22;1923;48.154;11.536;2023-03-08T21:45:05;9.60;99.90
3816;DHT22;1923;48.154;11.536;2023-03-08T21:47:34;9.70;99.90
3816;DHT22;1923;48.154;11.536;2023-03-08T21:50:02;9.70;99.90
3816;DHT22;1923;48.154;11.536;2023-03-08T21:52:30;9.70;99.90
3816;DHT22;1923;48.154;11.536;2023-03-08T21:54:58;9.70;99.90
3816;DHT22;1923;48.154;11.536;2023-03-08T21:57:27;9.60;99.90
3816;DHT22;1923;48.154;11.536;2023-03-08T21:59:55;9.60;99.90
3816;DHT22;1923;48.154;11.536;2023-03-08T22:02:23;9.60;99.90
3816;DHT22;1923;48.154;11.536;2023-03-08T22:04:51;9.50;99.90
3816;DHT22;1923;48.154;11.536;2023-03-08T22:07:19;9.60;99.90
3816;DHT22;1923;48.154;11.536;2023-03-08T22:09:48;9.70;99.90
3816;DHT22;1923;48.154;11.536;2023-03-08T22:12:16;9.70;99.90
3816;DHT22;1923;48.154;11.536;2023-03-08T22:14:46;9.80;99.90
3816;DHT22;1923;48.154;11.536;2023-03-08T22:17:14;9.80;99.90
3816;DHT22;1923;48.154;11.536;2023-03-08T22:19:42;9.90;99.90
3816;DHT22;1923;48.154;11.536;2023-03-08T22:22:11;10.00;99.90
3816;DHT22;1923;48.154;11.536;2023-03-08T22:24:39;10.00;99.90
3816;DHT22;1923;48.154;11.536;2023-03-08T22:27:07;10.00;99.90
3816;DHT22;1923;48.154;11.536;2023-03-08T22:29:36;10.00;99.90
3816;DHT22;1923;48.154;11.536;2023-03-08T22:32:06;10.10;99.90
3816;DHT22;1923;48.154;11.536;2023-03-08T22:34:35;10.10;99.90
3816;DHT22;1923;48.154;11.536;2023-03-08T22:37:03;10.10;99.90
3816;DHT22;1923;48.154;11.536;2023-03-08T22:39:31;10.20;99.90
